createdAt,value
2018-11-20T00:00:32.287Z,101805.00
2018-11-20T00:03:21.146Z,101800.00
2018-11-20T00:05:59.793Z,101794.00
2018-11-20T00:08:48.957Z,101796.00
2018-11-20T00:11:37.160Z,101793.00
2018-11-20T00:14:19.446Z,101802.00
2018-11-20T00:17:07.578Z,101805.00
2018-11-20T00:19:53.835Z,101807.00
2018-11-20T00:22:49.951Z,101800.00
2018-11-20T00:25:42.271Z,101795.00
2018-11-20T00:28:46.632Z,101794.00
2018-11-20T00:31:26.565Z,101797.00
2018-11-20T00:34:11.817Z,101797.00
2018-11-20T00:36:54.629Z,101797.00
2018-11-20T00:39:46.751Z,101795.00
2018-11-20T00:42:35.285Z,101788.00
2018-11-20T00:45:36.844Z,101790.00
2018-11-20T00:48:27.670Z,101792.00
2018-11-20T00:51:08.767Z,101788.00
2018-11-20T00:53:50.561Z,101787.00
2018-11-20T00:56:56.735Z,101789.00
2018-11-20T00:59:38.594Z,101783.00
2018-11-20T01:02:20.738Z,101787.00
2018-11-20T01:05:18.641Z,101773.00
2018-11-20T01:08:06.788Z,101773.00
2018-11-20T01:10:54.964Z,101772.00
2018-11-20T01:13:47.644Z,101758.00
2018-11-20T01:16:40.250Z,101760.00
2018-11-20T01:19:28.473Z,101766.00
2018-11-20T01:22:13.170Z,101758.00
2018-11-20T01:25:11.539Z,101750.00
2018-11-20T01:27:56.615Z,101754.00
2018-11-20T01:30:44.734Z,101754.00
2018-11-20T01:33:22.550Z,101756.00
2018-11-20T01:36:10.920Z,101754.00
2018-11-20T01:38:58.692Z,101744.00
2018-11-20T01:41:57.280Z,101744.00
2018-11-20T01:44:37.992Z,101744.00
2018-11-20T01:47:42.411Z,101735.00
2018-11-20T01:50:22.489Z,101730.00
2018-11-20T01:53:05.085Z,101729.00
2018-11-20T01:55:52.884Z,101728.00
2018-11-20T01:58:36.484Z,101731.00
2018-11-20T02:01:24.566Z,101733.00
2018-11-20T02:04:19.628Z,101729.00
2018-11-20T02:07:01.524Z,101725.00
2018-11-20T02:10:01.589Z,101724.00
2018-11-20T02:13:02.900Z,101732.00
2018-11-20T02:15:55.227Z,101730.00
2018-11-20T02:18:50.937Z,101715.00
2018-11-20T02:21:49.348Z,101721.00
2018-11-20T02:24:38.060Z,101715.00
2018-11-20T02:27:22.124Z,101717.00
2018-11-20T02:30:10.336Z,101714.00
2018-11-20T02:32:58.030Z,101712.00
2018-11-20T02:36:02.174Z,101719.00
2018-11-20T02:38:50.596Z,101708.00
2018-11-20T02:41:39.525Z,101712.00
2018-11-20T02:44:23.706Z,101689.00
2018-11-20T02:47:09.529Z,101690.00
2018-11-20T02:49:57.892Z,101694.00
2018-11-20T02:52:43.399Z,101683.00
2018-11-20T02:55:27.776Z,101682.00
2018-11-20T02:58:15.483Z,101678.00
2018-11-20T03:01:03.801Z,101662.00
2018-11-20T03:03:51.885Z,101679.00
2018-11-20T03:06:57.403Z,101675.00
2018-11-20T03:09:40.138Z,101655.00
2018-11-20T03:12:21.193Z,101646.00
2018-11-20T03:15:10.360Z,101650.00
2018-11-20T03:18:08.451Z,101643.00
2018-11-20T03:20:49.111Z,101635.00
2018-11-20T03:23:36.951Z,101620.00
2018-11-20T03:26:35.636Z,101616.00
2018-11-20T03:30:18.056Z,101609.00
2018-11-20T03:33:22.252Z,101623.00
2018-11-20T03:36:21.559Z,101602.00
2018-11-20T03:39:08.992Z,101599.00
2018-11-20T03:41:53.371Z,101600.00
2018-11-20T03:44:46.608Z,101601.00
2018-11-20T03:47:26.675Z,101596.00
2018-11-20T03:50:08.051Z,101592.00
2018-11-20T03:53:15.868Z,101606.00
2018-11-20T03:55:56.520Z,101597.00
2018-11-20T03:58:45.698Z,101593.00
2018-11-20T04:01:38.035Z,101598.00
2018-11-20T04:04:45.510Z,101592.00
2018-11-20T04:07:46.644Z,101590.00
2018-11-20T04:10:40.819Z,101591.00
2018-11-20T04:13:27.861Z,101581.00
2018-11-20T04:16:13.795Z,101581.00
2018-11-20T04:18:56.888Z,101584.00
2018-11-20T04:21:46.879Z,101586.00
2018-11-20T04:24:33.950Z,101602.00
2018-11-20T04:27:22.348Z,101595.00
2018-11-20T04:30:59.337Z,101596.00
2018-11-20T04:34:12.851Z,101608.00
2018-11-20T04:37:28.116Z,101620.00
2018-11-20T04:40:17.544Z,101612.00
2018-11-20T04:43:12.718Z,101617.00
2018-11-20T04:46:07.676Z,101609.00
2018-11-20T04:48:55.308Z,101614.00
2018-11-20T04:51:43.070Z,101618.00
2018-11-20T04:54:31.093Z,101618.00
2018-11-20T04:57:23.144Z,101606.00
2018-11-20T05:00:11.718Z,101615.00
2018-11-20T05:03:00.067Z,101622.00
2018-11-20T05:05:46.151Z,101608.00
2018-11-20T05:08:34.146Z,101626.00
2018-11-20T05:11:13.452Z,101616.00
2018-11-20T05:14:01.109Z,101613.00
2018-11-20T05:16:51.152Z,101622.00
2018-11-20T05:19:52.845Z,101620.00
2018-11-20T05:22:39.304Z,101614.00
2018-11-20T05:25:18.144Z,101614.00
2018-11-20T05:28:00.402Z,101592.00
2018-11-20T05:30:49.630Z,101598.00
2018-11-20T05:33:37.673Z,101609.00
2018-11-20T05:36:25.261Z,101619.00
2018-11-20T05:39:06.242Z,101623.00
2018-11-20T05:41:44.683Z,101627.00
2018-11-20T05:44:25.067Z,101622.00
2018-11-20T05:47:12.806Z,101633.00
2018-11-20T05:50:11.536Z,101643.00
2018-11-20T05:52:55.435Z,101641.00
2018-11-20T05:55:36.080Z,101639.00
2018-11-20T05:58:22.817Z,101640.00
2018-11-20T06:01:07.848Z,101646.00
2018-11-20T06:03:49.748Z,101644.00
2018-11-20T06:07:08.712Z,101643.00
2018-11-20T06:09:55.423Z,101634.00
2018-11-20T06:12:46.474Z,101639.00
2018-11-20T06:15:34.706Z,101650.00
2018-11-20T06:18:26.279Z,101639.00
2018-11-20T06:21:14.796Z,101654.00
2018-11-20T06:24:01.731Z,101642.00
2018-11-20T06:27:02.496Z,101646.00
2018-11-20T06:29:48.980Z,101641.00
2018-11-20T06:32:28.235Z,101639.00
2018-11-20T06:35:15.297Z,101649.00
2018-11-20T06:38:02.079Z,101642.00
2018-11-20T06:40:48.684Z,101651.00
2018-11-20T06:43:35.320Z,101654.00
2018-11-20T06:46:22.677Z,101641.00
2018-11-20T06:49:14.555Z,101647.00
2018-11-20T06:52:01.020Z,101639.00
2018-11-20T06:54:45.046Z,101643.00
2018-11-20T06:57:32.541Z,101644.00
2018-11-20T07:00:39.007Z,101647.00
2018-11-20T07:03:25.846Z,101645.00
2018-11-20T07:06:10.986Z,101655.00
2018-11-20T07:09:05.722Z,101669.00
2018-11-20T07:11:52.829Z,101657.00
2018-11-20T07:14:39.574Z,101658.00
2018-11-20T07:17:30.947Z,101659.00
2018-11-20T07:20:16.988Z,101646.00
2018-11-20T07:23:04.324Z,101643.00
2018-11-20T07:25:42.530Z,101644.00
2018-11-20T07:28:29.062Z,101641.00
2018-11-20T07:31:15.622Z,101642.00
2018-11-20T07:34:02.653Z,101625.00
2018-11-20T07:36:52.235Z,101630.00
2018-11-20T07:39:49.730Z,101629.00
2018-11-20T07:42:36.598Z,101621.00
2018-11-20T07:45:24.967Z,101618.00
2018-11-20T07:48:11.379Z,101612.00
2018-11-20T07:50:59.442Z,101612.00
2018-11-20T07:53:41.992Z,101616.00
2018-11-20T07:56:28.528Z,101616.00
2018-11-20T07:59:16.720Z,101606.00
2018-11-20T08:02:03.186Z,101614.00
2018-11-20T08:04:39.535Z,101605.00
2018-11-20T08:07:35.970Z,101599.00
2018-11-20T08:10:22.550Z,101600.00
2018-11-20T08:13:09.498Z,101595.00
2018-11-20T08:15:52.952Z,101599.00
2018-11-20T08:18:39.614Z,101603.00
2018-11-20T08:21:22.032Z,101602.00
2018-11-20T08:24:16.780Z,101601.00
2018-11-20T08:26:56.271Z,101596.00
2018-11-20T08:29:39.185Z,101607.00
2018-11-20T08:32:24.063Z,101593.00
2018-11-20T08:35:03.287Z,101597.00
2018-11-20T08:37:57.281Z,101590.00
2018-11-20T08:40:41.774Z,101591.00
2018-11-20T08:43:32.241Z,101598.00
2018-11-20T08:46:29.966Z,101588.00
2018-11-20T08:49:17.233Z,101594.00
2018-11-20T08:52:10.883Z,101585.00
2018-11-20T08:54:55.743Z,101594.00
2018-11-20T08:57:37.848Z,101586.00
2018-11-20T09:00:25.888Z,101577.00
2018-11-20T09:03:03.476Z,101577.00
2018-11-20T09:05:48.351Z,101582.00
2018-11-20T09:08:48.993Z,101586.00
2018-11-20T09:11:41.448Z,101571.00
2018-11-20T09:14:28.959Z,101578.00
2018-11-20T09:17:22.725Z,101562.00
2018-11-20T09:20:13.538Z,101566.00
2018-11-20T09:23:10.745Z,101570.00
2018-11-20T09:25:59.550Z,101576.00
2018-11-20T09:28:37.439Z,101568.00
2018-11-20T09:31:26.149Z,101556.00
2018-11-20T09:34:17.192Z,101563.00
2018-11-20T09:37:04.474Z,101550.00
2018-11-20T09:39:52.438Z,101537.00
2018-11-20T09:42:31.825Z,101543.00
2018-11-20T09:45:49.750Z,101536.00
2018-11-20T09:48:48.849Z,101528.00
2018-11-20T09:51:35.620Z,101524.00
2018-11-20T09:54:22.708Z,101516.00
2018-11-20T09:57:19.599Z,101510.00
2018-11-20T10:00:05.950Z,101498.00
2018-11-20T10:02:44.130Z,101490.00
2018-11-20T10:05:23.325Z,101503.00
2018-11-20T10:08:03.199Z,101502.00
2018-11-20T10:10:41.657Z,101503.00
2018-11-20T10:13:28.327Z,101506.00
2018-11-20T10:16:15.504Z,101511.00
2018-11-20T10:19:01.939Z,101509.00
2018-11-20T10:22:02.336Z,101495.00
2018-11-20T10:24:49.462Z,101490.00
2018-11-20T10:27:27.626Z,101502.00
2018-11-20T10:30:14.301Z,101499.00
2018-11-20T10:32:56.904Z,101484.00
2018-11-20T10:35:31.478Z,101485.00
2018-11-20T10:38:22.107Z,101476.00
2018-11-20T10:41:15.435Z,101491.00
2018-11-20T10:44:12.078Z,101483.00
2018-11-20T10:46:52.336Z,101482.00
2018-11-20T10:49:39.951Z,101480.00
2018-11-20T10:52:15.810Z,101481.00
2018-11-20T10:54:55.900Z,101473.00
2018-11-20T10:57:41.334Z,101476.00
2018-11-20T11:00:18.099Z,101474.00
2018-11-20T11:03:05.424Z,101465.00
2018-11-20T11:05:51.898Z,101470.00
2018-11-20T11:08:40.736Z,101481.00
2018-11-20T11:11:31.879Z,101475.00
2018-11-20T11:14:18.759Z,101467.00
2018-11-20T11:17:05.397Z,101482.00
2018-11-20T11:20:00.544Z,101480.00
2018-11-20T11:22:47.497Z,101470.00
2018-11-20T11:25:34.974Z,101469.00
2018-11-20T11:28:21.858Z,101472.00
2018-11-20T11:31:25.028Z,101462.00
2018-11-20T11:34:22.001Z,101459.00
2018-11-20T11:37:01.485Z,101456.00
2018-11-20T11:39:42.663Z,101470.00
2018-11-20T11:42:29.427Z,101449.00
2018-11-20T11:45:21.820Z,101460.00
2018-11-20T11:48:07.766Z,101467.00
2018-11-20T11:51:03.630Z,101451.00
2018-11-20T11:53:54.833Z,101447.00
2018-11-20T11:56:47.720Z,101461.00
2018-11-20T11:59:43.014Z,101464.00
2018-11-20T12:05:12.825Z,101466.00
2018-11-20T12:07:59.155Z,101455.00
2018-11-20T12:10:39.388Z,101465.00
2018-11-20T12:13:30.879Z,101458.00
2018-11-20T12:16:17.939Z,101453.00
2018-11-20T12:19:11.835Z,101440.00
2018-11-20T12:22:00.285Z,101431.00
2018-11-20T12:24:48.080Z,101433.00
2018-11-20T12:27:42.382Z,101437.00
2018-11-20T12:30:21.951Z,101443.00
2018-11-20T12:33:02.912Z,101425.00
2018-11-20T12:35:49.984Z,101419.00
2018-11-20T12:38:43.328Z,101429.00
2018-11-20T12:41:34.914Z,101414.00
2018-11-20T12:44:30.442Z,101405.00
2018-11-20T12:47:15.102Z,101409.00
2018-11-20T12:49:47.642Z,101404.00
2018-11-20T12:52:33.968Z,101400.00
2018-11-20T12:55:24.733Z,101404.00
2018-11-20T12:58:11.240Z,101404.00
2018-11-20T13:00:59.256Z,101399.00
2018-11-20T13:03:45.475Z,101404.00
2018-11-20T13:06:39.505Z,101401.00
2018-11-20T13:09:40.990Z,101393.00
2018-11-20T13:12:39.425Z,101398.00
2018-11-20T13:15:30.835Z,101392.00
2018-11-20T13:18:20.206Z,101375.00
2018-11-20T13:21:06.660Z,101392.00
2018-11-20T13:24:00.169Z,101382.00
2018-11-20T13:26:51.332Z,101385.00
2018-11-20T13:29:39.247Z,101373.00
2018-11-20T13:32:31.292Z,101375.00
2018-11-20T13:35:10.378Z,101378.00
2018-11-20T13:38:04.847Z,101378.00
2018-11-20T13:41:55.595Z,101368.00
2018-11-20T13:44:55.408Z,101377.00
2018-11-20T13:47:43.698Z,101371.00
2018-11-20T13:50:31.968Z,101370.00
2018-11-20T13:53:22.132Z,101362.00
2018-11-20T13:56:19.484Z,101360.00
2018-11-20T13:59:08.818Z,101350.00
2018-11-20T14:02:00.557Z,101356.00
2018-11-20T14:04:47.366Z,101347.00
2018-11-20T14:07:41.561Z,101344.00
2018-11-20T14:10:37.172Z,101350.00
2018-11-20T14:13:34.028Z,101328.00
2018-11-20T14:16:11.258Z,101322.00
2018-11-20T14:19:00.930Z,101316.00
2018-11-20T14:21:47.592Z,101316.00
2018-11-20T14:24:34.314Z,101310.00
2018-11-20T14:27:21.393Z,101303.00
2018-11-20T14:30:12.663Z,101306.00
2018-11-20T14:32:58.421Z,101296.00
2018-11-20T14:35:42.875Z,101298.00
2018-11-20T14:38:29.637Z,101290.00
2018-11-20T14:41:20.828Z,101281.00
2018-11-20T14:44:04.496Z,101283.00
2018-11-20T14:46:54.041Z,101292.00
2018-11-20T14:50:00.860Z,101283.00
2018-11-20T14:52:47.455Z,101291.00
2018-11-20T14:55:34.231Z,101283.00
2018-11-20T14:58:34.347Z,101288.00
2018-11-20T15:01:20.609Z,101286.00
2018-11-20T15:04:07.476Z,101297.00
2018-11-20T15:07:01.313Z,101298.00
2018-11-20T15:09:52.408Z,101299.00
2018-11-20T15:12:35.174Z,101296.00
2018-11-20T15:15:15.706Z,101304.00
2018-11-20T15:18:18.671Z,101308.00
2018-11-20T15:21:19.191Z,101321.00
2018-11-20T15:24:01.227Z,101319.00
2018-11-20T15:26:46.757Z,101306.00
2018-11-20T15:29:34.052Z,101310.00
2018-11-20T15:32:20.550Z,101301.00
2018-11-20T15:35:11.248Z,101298.00
2018-11-20T15:37:50.505Z,101299.00
2018-11-20T15:40:27.546Z,101307.00
2018-11-20T15:43:14.899Z,101304.00
2018-11-20T15:46:02.903Z,101309.00
2018-11-20T15:48:50.551Z,101310.00
2018-11-20T15:51:56.714Z,101306.00
2018-11-20T15:54:43.174Z,101319.00
2018-11-20T15:57:33.915Z,101311.00
2018-11-20T16:00:22.263Z,101309.00
2018-11-20T16:03:25.410Z,101312.00
2018-11-20T16:06:07.733Z,101316.00
2018-11-20T16:08:55.993Z,101317.00
2018-11-20T16:11:38.827Z,101320.00
2018-11-20T16:14:24.708Z,101314.00
2018-11-20T16:17:22.689Z,101332.00
2018-11-20T16:20:10.921Z,101340.00
2018-11-20T16:22:53.461Z,101336.00
2018-11-20T16:25:39.959Z,101338.00
2018-11-20T16:28:24.844Z,101347.00
2018-11-20T16:31:02.769Z,101348.00
2018-11-20T16:33:49.727Z,101341.00
2018-11-20T16:36:44.218Z,101349.00
2018-11-20T16:39:44.460Z,101372.00
2018-11-20T16:42:27.668Z,101355.00
2018-11-20T16:45:11.205Z,101357.00
2018-11-20T16:48:03.652Z,101363.00
2018-11-20T16:50:51.996Z,101373.00
2018-11-20T16:53:36.256Z,101374.00
2018-11-20T16:56:23.072Z,101375.00
2018-11-20T16:59:23.203Z,101379.00
2018-11-20T17:02:17.485Z,101374.00
2018-11-20T17:05:08.193Z,101372.00
2018-11-20T17:07:56.261Z,101377.00
2018-11-20T17:10:41.992Z,101372.00
2018-11-20T17:13:48.399Z,101378.00
2018-11-20T17:16:35.298Z,101376.00
2018-11-20T17:19:21.871Z,101381.00
2018-11-20T17:22:10.109Z,101377.00
2018-11-20T17:25:07.597Z,101383.00
2018-11-20T17:27:47.281Z,101372.00
2018-11-20T17:30:32.211Z,101375.00
2018-11-20T17:33:16.544Z,101373.00
2018-11-20T17:36:03.440Z,101373.00
2018-11-20T17:39:06.233Z,101372.00
2018-11-20T17:42:00.654Z,101360.00
2018-11-20T17:44:47.330Z,101350.00
2018-11-20T17:47:23.606Z,101356.00
2018-11-20T17:50:04.130Z,101364.00
2018-11-20T17:52:54.263Z,101378.00
2018-11-20T17:55:48.193Z,101369.00
2018-11-20T17:58:31.193Z,101370.00
2018-11-20T18:01:22.930Z,101366.00
2018-11-20T18:04:20.376Z,101366.00
2018-11-20T18:07:04.706Z,101375.00
2018-11-20T18:09:46.650Z,101378.00
2018-11-20T18:12:33.495Z,101373.00
2018-11-20T18:15:24.636Z,101384.00
2018-11-20T18:18:11.939Z,101380.00
2018-11-20T18:20:54.190Z,101379.00
2018-11-20T18:23:40.657Z,101375.00
2018-11-20T18:26:27.319Z,101375.00
2018-11-20T18:29:14.150Z,101381.00
2018-11-20T18:32:05.607Z,101385.00
2018-11-20T18:34:51.980Z,101379.00
2018-11-20T18:37:35.847Z,101377.00
2018-11-20T18:40:23.108Z,101377.00
2018-11-20T18:42:59.784Z,101374.00
2018-11-20T18:45:37.653Z,101391.00
2018-11-20T18:48:24.455Z,101387.00
2018-11-20T18:51:22.171Z,101394.00
2018-11-20T18:54:00.338Z,101385.00
2018-11-20T18:56:47.383Z,101386.00
2018-11-20T18:59:44.106Z,101380.00
2018-11-20T19:02:30.495Z,101391.00
2018-11-20T19:05:18.550Z,101391.00
2018-11-20T19:07:56.833Z,101385.00
2018-11-20T19:10:57.688Z,101385.00
2018-11-20T19:13:36.011Z,101372.00
2018-11-20T19:16:23.582Z,101385.00
2018-11-20T19:19:24.106Z,101383.00
2018-11-20T19:22:12.241Z,101379.00
2018-11-20T19:25:03.386Z,101385.00
2018-11-20T19:27:51.385Z,101378.00
2018-11-20T19:30:50.703Z,101380.00
2018-11-20T19:33:35.017Z,101385.00
2018-11-20T19:36:21.764Z,101380.00
2018-11-20T19:39:09.085Z,101374.00
2018-11-20T19:42:05.218Z,101385.00
2018-11-20T19:44:49.725Z,101396.00
2018-11-20T19:47:42.066Z,101388.00
2018-11-20T19:50:30.696Z,101384.00
2018-11-20T19:53:17.478Z,101386.00
2018-11-20T19:56:01.149Z,101378.00
2018-11-20T19:58:49.650Z,101386.00
2018-11-20T20:01:36.336Z,101378.00
2018-11-20T20:04:23.500Z,101387.00
2018-11-20T20:07:01.870Z,101392.00
2018-11-20T20:09:41.798Z,101394.00
2018-11-20T20:12:34.136Z,101382.00
2018-11-20T20:15:19.550Z,101397.00
2018-11-20T20:18:13.004Z,101392.00
2018-11-20T20:21:07.195Z,101402.00
2018-11-20T20:24:13.539Z,101410.00
2018-11-20T20:26:59.633Z,101411.00
2018-11-20T20:29:46.256Z,101411.00
2018-11-20T20:32:38.997Z,101406.00
2018-11-20T20:35:35.144Z,101415.00
2018-11-20T20:38:25.421Z,101416.00
2018-11-20T20:41:11.883Z,101420.00
2018-11-20T20:43:57.882Z,101420.00
2018-11-20T20:46:44.427Z,101426.00
2018-11-20T20:49:31.603Z,101428.00
2018-11-20T20:52:08.684Z,101431.00
2018-11-20T20:55:11.716Z,101437.00
2018-11-20T20:57:51.976Z,101444.00
2018-11-20T21:00:37.960Z,101433.00
2018-11-20T21:03:25.398Z,101432.00
2018-11-20T21:06:07.499Z,101447.00
2018-11-20T21:08:57.523Z,101451.00
2018-11-20T21:11:43.257Z,101446.00
2018-11-20T21:14:33.711Z,101455.00
2018-11-20T21:17:20.431Z,101452.00
2018-11-20T21:20:06.307Z,101466.00
2018-11-20T21:22:54.564Z,101459.00
2018-11-20T21:25:41.023Z,101454.00
2018-11-20T21:28:34.927Z,101454.00
2018-11-20T21:31:21.707Z,101459.00
2018-11-20T21:34:08.371Z,101453.00
2018-11-20T21:36:48.611Z,101468.00
2018-11-20T21:39:35.581Z,101474.00
2018-11-20T21:42:11.838Z,101472.00
2018-11-20T21:45:02.602Z,101465.00
2018-11-20T21:47:49.327Z,101466.00
2018-11-20T21:50:43.600Z,101471.00
2018-11-20T21:53:27.380Z,101465.00
2018-11-20T21:56:13.831Z,101480.00
2018-11-20T21:59:00.471Z,101466.00
2018-11-20T22:01:48.595Z,101466.00
2018-11-20T22:04:36.850Z,101475.00
2018-11-20T22:07:32.007Z,101482.00
2018-11-20T22:10:18.929Z,101478.00
2018-11-20T22:13:12.834Z,101474.00
2018-11-20T22:15:59.652Z,101481.00
2018-11-20T22:18:46.839Z,101473.00
2018-11-20T22:21:40.775Z,101477.00
2018-11-20T22:24:21.624Z,101473.00
2018-11-20T22:27:08.977Z,101472.00
2018-11-20T22:29:58.390Z,101470.00
2018-11-20T22:32:47.231Z,101477.00
2018-11-20T22:35:24.163Z,101478.00
2018-11-20T22:38:11.494Z,101470.00
2018-11-20T22:40:57.993Z,101471.00
2018-11-20T22:44:01.242Z,101486.00
2018-11-20T22:46:40.846Z,101480.00
2018-11-20T22:49:43.905Z,101481.00
2018-11-20T22:52:28.139Z,101490.00
2018-11-20T22:55:05.608Z,101491.00
2018-11-20T22:57:52.258Z,101486.00
2018-11-20T23:00:49.554Z,101489.00
2018-11-20T23:03:29.712Z,101494.00
2018-11-20T23:06:06.155Z,101488.00
2018-11-20T23:08:34.940Z,101487.00
2018-11-20T23:11:04.063Z,101499.00
2018-11-20T23:13:33.290Z,101494.00
2018-11-20T23:16:02.149Z,101498.00
2018-11-20T23:18:30.924Z,101481.00
2018-11-20T23:21:00.141Z,101494.00
2018-11-20T23:23:29.009Z,101494.00
2018-11-20T23:25:58.344Z,101486.00
2018-11-20T23:28:27.229Z,101491.00
2018-11-20T23:30:56.010Z,101485.00
2018-11-20T23:33:25.156Z,101497.00
2018-11-20T23:35:54.254Z,101494.00
2018-11-20T23:38:23.074Z,101495.00
2018-11-20T23:40:51.865Z,101504.00
2018-11-20T23:43:21.283Z,101493.00
2018-11-20T23:45:50.082Z,101492.00
2018-11-20T23:48:18.871Z,101498.00
2018-11-20T23:50:47.730Z,101499.00
2018-11-20T23:53:16.913Z,101497.00
2018-11-20T23:55:45.704Z,101507.00
2018-11-20T23:58:14.909Z,101498.00
